createdAt,value
2019-04-22T00:02:41.022Z,6.12
2019-04-22T00:05:34.739Z,5.25
2019-04-22T00:08:26.707Z,5.97
2019-04-22T00:11:16.176Z,5.75
2019-04-22T00:13:55.546Z,5.53
2019-04-22T00:16:50.352Z,5.83
2019-04-22T00:22:13.931Z,5.78
2019-04-22T00:24:46.216Z,5.35
2019-04-22T00:27:37.293Z,5.65
2019-04-22T00:30:16.493Z,5.28
2019-04-22T00:33:17.984Z,6.20
2019-04-22T00:35:54.555Z,6.05
2019-04-22T00:38:44.426Z,5.70
2019-04-22T00:41:20.383Z,5.58
2019-04-22T00:44:15.726Z,6.35
2019-04-22T00:46:54.124Z,5.53
2019-04-22T00:50:06.440Z,5.53
2019-04-22T00:52:30.625Z,5.03
2019-04-22T00:55:04.234Z,5.95
2019-04-22T00:57:42.526Z,5.95
2019-04-22T01:00:24.693Z,5.47
2019-04-22T01:03:18.037Z,5.75
2019-04-22T01:05:51.445Z,5.85
2019-04-22T01:08:35.125Z,5.55
2019-04-22T01:11:21.443Z,5.22
2019-04-22T01:13:55.901Z,5.28
2019-04-22T01:16:40.793Z,5.83
2019-04-22T01:19:26.113Z,5.60
2019-04-22T01:22:03.101Z,4.97
2019-04-22T01:24:38.694Z,5.92
2019-04-22T01:27:22.216Z,5.28
2019-04-22T01:29:55.343Z,5.70
2019-04-22T01:32:37.086Z,5.62
2019-04-22T01:35:26.426Z,5.70
2019-04-22T01:38:13.661Z,5.28
2019-04-22T01:41:07.223Z,5.50
2019-04-22T01:43:52.189Z,5.67
2019-04-22T01:46:32.070Z,5.53
2019-04-22T01:49:19.732Z,5.45
2019-04-22T01:52:01.683Z,5.75
2019-04-22T01:54:41.833Z,5.08
2019-04-22T01:57:20.460Z,5.62
2019-04-22T01:59:57.626Z,5.45
2019-04-22T02:02:42.272Z,5.42
2019-04-22T02:05:28.969Z,5.37
2019-04-22T02:08:15.318Z,5.35
2019-04-22T02:10:54.842Z,5.40
2019-04-22T02:13:35.365Z,5.40
2019-04-22T02:16:19.909Z,5.33
2019-04-22T02:19:11.721Z,5.58
2019-04-22T02:21:42.732Z,6.12
2019-04-22T02:24:35.955Z,5.50
2019-04-22T02:27:17.374Z,5.70
2019-04-22T02:32:48.641Z,5.40
2019-04-22T02:38:07.583Z,4.92
2019-04-22T02:41:08.727Z,5.00
2019-04-22T02:49:01.010Z,4.58
2019-04-22T02:51:32.650Z,4.53
2019-04-22T02:57:18.795Z,5.27
2019-04-22T03:05:19.475Z,4.67
2019-04-22T03:07:58.270Z,4.80
2019-04-22T03:10:47.236Z,5.25
2019-04-22T03:13:29.272Z,4.97
2019-04-22T03:21:25.891Z,4.83
2019-04-22T03:26:58.903Z,5.20
2019-04-22T03:29:48.578Z,4.85
2019-04-22T03:40:37.258Z,5.00
2019-04-22T03:43:20.943Z,4.80
2019-04-22T03:45:45.781Z,4.70
2019-04-22T03:49:02.037Z,4.65
2019-04-22T03:51:54.986Z,5.17
2019-04-22T04:05:11.809Z,4.87
2019-04-22T04:10:58.210Z,4.83
2019-04-22T04:15:48.486Z,4.57
2019-04-22T04:19:02.619Z,4.50
2019-04-22T04:27:37.085Z,4.33
2019-04-22T04:30:00.152Z,4.70
2019-04-22T04:32:55.182Z,4.53
2019-04-22T04:35:32.918Z,5.12
2019-04-22T04:37:54.873Z,4.73
2019-04-22T04:41:06.940Z,5.00
2019-04-22T04:52:19.185Z,5.27
2019-04-22T04:55:10.061Z,4.55
2019-04-22T04:58:13.885Z,4.87
2019-04-22T05:06:33.140Z,4.90
2019-04-22T05:11:58.775Z,4.83
2019-04-22T05:17:15.738Z,5.20
2019-04-22T05:20:01.976Z,5.03
2019-04-22T05:22:34.139Z,4.60
2019-04-22T05:27:55.676Z,4.50
2019-04-22T05:30:39.536Z,5.08
2019-04-22T05:33:18.968Z,4.65
2019-04-22T05:36:10.236Z,4.80
2019-04-22T05:39:00.143Z,4.33
2019-04-22T05:41:48.409Z,4.83
2019-04-22T05:44:37.208Z,5.05
2019-04-22T05:47:08.355Z,4.90
2019-04-22T05:50:00.057Z,5.20
2019-04-22T05:52:51.092Z,4.87
2019-04-22T05:58:17.076Z,4.90
2019-04-22T06:04:05.371Z,5.17
2019-04-22T06:06:50.993Z,5.50
2019-04-22T06:09:24.921Z,5.17
2019-04-22T06:12:06.666Z,5.10
2019-04-22T06:15:24.143Z,4.92
2019-04-22T06:18:15.990Z,4.50
2019-04-22T06:20:53.980Z,5.23
2019-04-22T06:26:26.834Z,5.03
2019-04-22T06:34:38.910Z,4.80
2019-04-22T06:39:52.337Z,5.05
2019-04-22T06:45:26.331Z,4.80
2019-04-22T06:48:07.013Z,4.42
2019-04-22T06:50:36.817Z,5.20
2019-04-22T06:53:25.059Z,4.70
2019-04-22T06:56:16.078Z,4.50
2019-04-22T06:59:09.366Z,4.83
2019-04-22T07:02:16.562Z,4.62
2019-04-22T07:07:56.606Z,4.83
2019-04-22T07:13:27.799Z,4.60
2019-04-22T07:19:01.835Z,4.92
2019-04-22T07:21:46.788Z,4.15
2019-04-22T07:27:07.703Z,4.05
2019-04-22T07:30:02.004Z,4.78
2019-04-22T07:33:09.420Z,4.50
2019-04-22T07:35:51.593Z,4.42
2019-04-22T07:41:16.976Z,4.20
2019-04-22T07:47:07.880Z,4.40
2019-04-22T07:52:51.809Z,4.28
2019-04-22T07:55:27.693Z,4.58
2019-04-22T07:58:18.776Z,4.55
2019-04-22T08:01:12.358Z,4.87
2019-04-22T08:03:45.399Z,4.60
2019-04-22T08:06:13.682Z,4.75
2019-04-22T08:08:45.756Z,4.80
2019-04-22T08:11:30.963Z,4.62
2019-04-22T08:17:30.870Z,4.65
2019-04-22T08:19:56.086Z,5.17
2019-04-22T08:22:39.482Z,4.97
2019-04-22T08:25:06.705Z,4.33
2019-04-22T08:27:59.853Z,4.65
2019-04-22T08:30:35.507Z,4.37
2019-04-22T08:33:04.413Z,4.40
2019-04-22T08:36:06.149Z,4.50
2019-04-22T08:38:30.884Z,4.85
2019-04-22T08:44:27.835Z,4.95
2019-04-22T08:52:49.435Z,4.92
2019-04-22T08:58:27.383Z,4.85
2019-04-22T09:01:11.255Z,5.30
2019-04-22T09:07:12.884Z,5.17
2019-04-22T09:12:46.702Z,4.65
2019-04-22T09:15:01.093Z,4.35
2019-04-22T09:17:36.291Z,4.50
2019-04-22T09:20:08.016Z,4.58
2019-04-22T09:22:36.292Z,4.70
2019-04-22T09:25:27.407Z,4.28
2019-04-22T09:27:43.185Z,5.15
2019-04-22T09:30:16.994Z,4.42
2019-04-22T09:32:48.299Z,4.50
2019-04-22T09:35:15.964Z,4.67
2019-04-22T09:38:23.762Z,4.53
2019-04-22T09:42:56.405Z,4.87
2019-04-22T09:45:23.251Z,4.65
2019-04-22T09:50:40.462Z,4.33
2019-04-22T09:53:04.947Z,4.62
2019-04-22T09:55:32.834Z,4.30
2019-04-22T09:58:02.783Z,4.37
2019-04-22T10:00:43.004Z,4.58
2019-04-22T10:03:16.601Z,4.58
2019-04-22T10:05:52.097Z,4.00
2019-04-22T10:08:24.605Z,4.55
2019-04-22T10:10:54.808Z,4.37
2019-04-22T10:13:29.730Z,4.58
2019-04-22T10:15:56.727Z,4.20
2019-04-22T10:18:25.857Z,4.62
2019-04-22T10:20:53.897Z,4.60
2019-04-22T10:23:25.166Z,4.80
2019-04-22T10:25:59.439Z,4.58
2019-04-22T10:28:32.352Z,4.35
2019-04-22T10:31:21.899Z,4.47
2019-04-22T10:33:27.241Z,4.45
2019-04-22T10:35:39.449Z,4.53
2019-04-22T10:38:10.394Z,4.95
2019-04-22T10:40:40.761Z,4.28
2019-04-22T10:43:12.765Z,4.10
2019-04-22T10:45:44.186Z,4.40
2019-04-22T10:48:14.566Z,4.55
2019-04-22T10:50:48.673Z,4.00
2019-04-22T10:53:19.868Z,4.25
2019-04-22T10:55:54.358Z,4.33
2019-04-22T10:58:24.848Z,4.78
2019-04-22T11:00:58.100Z,4.35
2019-04-22T11:03:28.360Z,4.60
2019-04-22T11:05:59.128Z,4.30
2019-04-22T11:08:38.600Z,4.25
2019-04-22T11:11:16.090Z,4.22
2019-04-22T11:13:33.765Z,4.17
2019-04-22T11:16:03.571Z,3.85
2019-04-22T11:18:33.758Z,3.90
2019-04-22T11:21:03.472Z,4.12
2019-04-22T11:23:34.360Z,4.28
2019-04-22T11:26:05.983Z,4.30
2019-04-22T11:28:37.913Z,3.90
2019-04-22T11:31:08.245Z,4.12
2019-04-22T11:33:38.567Z,4.08
2019-04-22T11:36:08.283Z,4.15
2019-04-22T11:38:48.662Z,4.22
2019-04-22T11:41:10.562Z,4.08
2019-04-22T11:43:41.169Z,3.80
2019-04-22T11:46:11.477Z,4.03
2019-04-22T11:48:42.421Z,3.75
2019-04-22T11:51:13.816Z,3.80
2019-04-22T11:53:44.904Z,4.12
2019-04-22T11:56:14.802Z,3.67
2019-04-22T11:58:46.607Z,3.50
2019-04-22T12:01:17.013Z,3.95
2019-04-22T12:03:46.819Z,3.27
2019-04-22T12:06:20.267Z,3.60
2019-04-22T12:08:51.690Z,3.55
2019-04-22T12:11:22.869Z,3.70
2019-04-22T12:13:54.017Z,3.80
2019-04-22T12:16:23.754Z,3.80
2019-04-22T12:18:53.507Z,3.92
2019-04-22T12:21:23.490Z,3.52
2019-04-22T12:23:53.194Z,3.35
2019-04-22T12:26:24.655Z,3.72
2019-04-22T12:28:55.070Z,3.67
2019-04-22T12:31:24.928Z,3.45
2019-04-22T12:33:55.077Z,3.70
2019-04-22T12:36:26.488Z,3.67
2019-04-22T12:38:57.795Z,3.65
2019-04-22T12:41:27.833Z,3.60
2019-04-22T12:43:59.003Z,3.98
2019-04-22T12:46:32.337Z,3.00
2019-04-22T12:49:02.417Z,3.50
2019-04-22T12:51:33.303Z,3.40
2019-04-22T12:54:03.344Z,3.40
2019-04-22T12:56:33.485Z,3.80
2019-04-22T12:59:03.826Z,3.65
2019-04-22T13:01:35.051Z,3.35
2019-04-22T13:04:09.344Z,3.62
2019-04-22T13:06:35.787Z,3.33
2019-04-22T13:09:08.498Z,2.77
2019-04-22T13:11:40.056Z,3.17
2019-04-22T13:14:12.728Z,3.60
2019-04-22T13:16:42.915Z,3.30
2019-04-22T13:19:15.238Z,2.80
2019-04-22T13:21:44.830Z,3.10
2019-04-22T13:24:16.812Z,2.65
2019-04-22T13:26:45.678Z,3.15
2019-04-22T13:29:15.234Z,3.17
2019-04-22T13:31:46.567Z,3.30
2019-04-22T13:34:24.351Z,2.80
2019-04-22T13:36:48.795Z,2.92
2019-04-22T13:39:18.849Z,3.10
2019-04-22T13:41:53.938Z,2.87
2019-04-22T13:44:20.802Z,2.80
2019-04-22T13:47:11.618Z,2.95
2019-04-22T13:50:08.104Z,2.65
2019-04-22T13:52:36.041Z,2.70
2019-04-22T13:57:37.093Z,2.60
2019-04-22T13:59:50.516Z,2.70
2019-04-22T14:02:30.658Z,2.70
2019-04-22T14:05:01.080Z,2.65
2019-04-22T14:07:30.839Z,2.58
2019-04-22T14:10:00.438Z,2.70
2019-04-22T14:12:32.852Z,3.62
2019-04-22T14:15:04.175Z,2.62
2019-04-22T14:17:34.850Z,2.83
2019-04-22T14:20:04.906Z,2.70
2019-04-22T14:22:34.694Z,2.90
2019-04-22T14:25:05.054Z,2.50
2019-04-22T14:27:47.550Z,2.17
2019-04-22T14:30:08.070Z,2.50
2019-04-22T14:32:38.534Z,2.60
2019-04-22T14:35:11.223Z,2.25
2019-04-22T14:37:40.752Z,2.33
2019-04-22T14:40:14.007Z,2.30
2019-04-22T14:43:00.795Z,2.98
2019-04-22T14:45:58.803Z,2.08
2019-04-22T14:48:11.124Z,2.50
2019-04-22T14:50:40.049Z,2.50
2019-04-22T14:53:08.129Z,2.30
2019-04-22T14:55:26.889Z,2.47
2019-04-22T14:57:55.031Z,2.17
2019-04-22T15:00:26.298Z,2.30
2019-04-22T15:02:57.428Z,2.85
2019-04-22T15:05:28.230Z,2.30
2019-04-22T15:07:58.866Z,2.55
2019-04-22T15:10:29.266Z,2.55
2019-04-22T15:13:00.634Z,2.52
2019-04-22T15:15:43.195Z,2.17
2019-04-22T15:18:45.975Z,2.02
2019-04-22T15:21:34.574Z,2.33
2019-04-22T15:27:35.277Z,1.82
2019-04-22T15:36:14.074Z,2.15
2019-04-22T15:39:03.295Z,2.35
2019-04-22T15:42:00.371Z,2.30
2019-04-22T15:44:44.065Z,2.20
2019-04-22T15:47:33.117Z,2.40
2019-04-22T15:53:31.657Z,2.30
2019-04-22T16:08:10.943Z,2.30
2019-04-22T16:11:01.994Z,2.10
2019-04-22T16:13:44.319Z,2.10
2019-04-22T16:16:25.516Z,2.60
2019-04-22T16:19:06.825Z,2.30
2019-04-22T16:21:55.502Z,2.33
2019-04-22T16:27:48.082Z,2.40
2019-04-22T16:30:30.995Z,2.00
2019-04-22T16:33:13.182Z,2.67
2019-04-22T16:35:55.036Z,2.52
2019-04-22T16:38:37.256Z,2.67
2019-04-22T16:41:19.026Z,2.77
2019-04-22T16:44:00.771Z,2.42
2019-04-22T16:46:43.641Z,2.15
2019-04-22T16:49:25.551Z,2.37
2019-04-22T16:52:08.021Z,2.83
2019-04-22T16:54:50.628Z,2.40
2019-04-22T16:57:31.916Z,2.33
2019-04-22T17:00:16.403Z,2.42
2019-04-22T17:03:16.713Z,2.15
2019-04-22T17:06:17.367Z,2.05
2019-04-22T17:09:00.485Z,1.90
2019-04-22T17:11:30.099Z,2.05
2019-04-22T17:14:30.002Z,2.60
2019-04-22T17:17:10.569Z,2.22
2019-04-22T17:19:59.919Z,2.30
2019-04-22T17:22:49.419Z,2.30
2019-04-22T17:25:38.679Z,2.40
2019-04-22T17:28:27.696Z,2.12
2019-04-22T17:31:18.600Z,2.37
2019-04-22T17:33:48.888Z,2.20
2019-04-22T17:36:40.345Z,2.80
2019-04-22T17:39:42.788Z,2.27
2019-04-22T17:43:02.061Z,2.10
2019-04-22T17:52:30.379Z,2.60
2019-04-22T17:55:19.457Z,2.80
2019-04-22T17:58:20.654Z,2.40
2019-04-22T18:03:49.706Z,2.47
2019-04-22T18:07:07.350Z,2.70
2019-04-22T18:10:10.956Z,2.72
2019-04-22T18:13:00.037Z,2.10
2019-04-22T18:15:48.463Z,2.58
2019-04-22T18:21:35.161Z,2.45
2019-04-22T18:24:23.379Z,1.90
2019-04-22T18:27:34.803Z,2.70
2019-04-22T18:39:11.087Z,2.83
2019-04-22T18:41:51.894Z,2.85
2019-04-22T18:54:01.109Z,3.00
2019-04-22T18:57:08.356Z,3.17
2019-04-22T18:59:32.690Z,3.00
2019-04-22T19:05:55.785Z,2.75
2019-04-22T19:11:34.165Z,3.12
2019-04-22T19:14:07.699Z,3.22
2019-04-22T19:22:45.766Z,3.22
2019-04-22T19:31:51.300Z,3.30
2019-04-22T19:34:30.845Z,2.90
2019-04-22T19:37:13.259Z,3.30
2019-04-22T19:43:02.407Z,4.10
2019-04-22T19:45:44.228Z,3.22
2019-04-22T19:51:56.079Z,3.50
2019-04-22T19:57:34.402Z,3.17
2019-04-22T20:00:35.737Z,3.30
2019-04-22T20:09:22.195Z,3.00
2019-04-22T20:12:02.524Z,3.08
2019-04-22T20:14:48.351Z,3.30
2019-04-22T20:17:26.718Z,3.05
2019-04-22T20:20:19.610Z,3.22
2019-04-22T20:22:47.884Z,3.10
2019-04-22T20:25:32.998Z,3.52
2019-04-22T20:28:19.366Z,3.25
2019-04-22T20:31:04.012Z,3.40
2019-04-22T20:33:59.373Z,2.92
2019-04-22T20:36:44.731Z,2.92
2019-04-22T20:39:02.216Z,3.30
2019-04-22T20:41:46.865Z,3.35
2019-04-22T20:44:37.952Z,2.92
2019-04-22T20:47:15.841Z,3.25
2019-04-22T20:50:04.491Z,3.30
2019-04-22T20:52:46.878Z,2.70
2019-04-22T20:55:17.739Z,2.75
2019-04-22T20:58:09.970Z,2.50
2019-04-22T21:00:40.536Z,3.12
2019-04-22T21:03:24.296Z,2.72
2019-04-22T21:06:10.334Z,3.02
2019-04-22T21:09:01.163Z,3.00
2019-04-22T21:11:34.645Z,3.17
2019-04-22T21:14:21.647Z,2.52
2019-04-22T21:17:09.616Z,2.90
2019-04-22T21:19:40.220Z,2.85
2019-04-22T21:22:12.782Z,2.70
2019-04-22T21:24:34.725Z,2.98
2019-04-22T21:27:17.760Z,2.50
2019-04-22T21:29:37.611Z,3.00
2019-04-22T21:32:13.618Z,2.47
2019-04-22T21:34:55.426Z,2.87
2019-04-22T21:37:21.561Z,2.67
2019-04-22T21:39:42.018Z,2.40
2019-04-22T21:42:15.660Z,2.60
2019-04-22T21:44:44.007Z,2.35
2019-04-22T21:47:33.113Z,2.42
2019-04-22T21:50:10.217Z,2.72
2019-04-22T21:52:24.875Z,2.47
2019-04-22T21:55:04.308Z,2.90
2019-04-22T21:58:08.039Z,2.77
2019-04-22T22:00:53.769Z,2.50
2019-04-22T22:03:19.513Z,2.35
2019-04-22T22:05:43.649Z,2.30
2019-04-22T22:08:22.902Z,2.35
2019-04-22T22:10:51.199Z,2.50
2019-04-22T22:13:27.049Z,2.70
2019-04-22T22:15:53.776Z,2.58
2019-04-22T22:18:21.422Z,2.25
2019-04-22T22:23:31.803Z,2.08
2019-04-22T22:25:56.993Z,2.20
2019-04-22T22:28:45.385Z,2.33
2019-04-22T22:31:09.285Z,2.55
2019-04-22T22:33:40.483Z,2.27
2019-04-22T22:36:04.978Z,2.22
2019-04-22T22:38:31.151Z,2.47
2019-04-22T22:40:50.138Z,2.30
2019-04-22T22:43:27.801Z,2.22
2019-04-22T22:46:05.883Z,2.50
2019-04-22T22:48:51.562Z,2.45
2019-04-22T22:51:23.201Z,2.08
2019-04-22T22:53:52.701Z,2.30
2019-04-22T22:56:25.303Z,2.58
2019-04-22T22:58:52.443Z,1.90
2019-04-22T23:01:24.274Z,2.25
2019-04-22T23:03:56.027Z,2.33
2019-04-22T23:06:37.005Z,2.62
2019-04-22T23:09:02.155Z,2.37
2019-04-22T23:11:45.463Z,2.22
2019-04-22T23:14:02.535Z,2.30
2019-04-22T23:16:24.261Z,2.40
2019-04-22T23:19:01.946Z,2.27
2019-04-22T23:21:39.617Z,2.40
2019-04-22T23:24:39.967Z,2.83
2019-04-22T23:26:59.760Z,2.22
2019-04-22T23:29:49.916Z,2.33
2019-04-22T23:32:22.716Z,2.55
2019-04-22T23:35:06.755Z,2.50
2019-04-22T23:37:35.359Z,2.00
2019-04-22T23:40:17.266Z,2.40
2019-04-22T23:42:44.460Z,2.90
2019-04-22T23:45:13.925Z,2.60
2019-04-22T23:47:39.051Z,2.60
2019-04-22T23:50:24.472Z,3.00
2019-04-22T23:52:53.314Z,2.37
2019-04-22T23:55:28.206Z,2.70
2019-04-22T23:57:56.752Z,2.40
